Selected Arizona METAR Reports


Metar stations are listed by distance from this station - near to far. The 'official' reporting station for the Greater Phoenix area is KPHX - Phoenix/Sky Harbor.

KDVT - Phoenix/Deer Valley, Arizona, USA
Distance from station: NW 4mi, 7km
Updated: Thu 18 Oct 2018 1253 MST
Clear
Clear
 Wind from E
Wind: E 7 mph , 11 km/h
Temperature: 77°F , 25°C
Dew Point: 45°F , 7°C
Humidity: 32%
Barometer: 30.04 inHg , 1017.3 hPa
Clouds: Clear
Visibility: 10 miles , 16 km
2018/10/18 19:53 KDVT 181953Z 09006KT 10SM CLR 25/07 A3004 RMK AO2 SLP157 T02500067
KSDL - Scottsdale, Arizona, USA
Distance from station: ESE 6mi, 9km
Updated: Thu 18 Oct 2018 1253 MST
Clear
Clear
 Wind from E
Wind: E 7 mph , 11 km/h
Temperature: 77°F , 25°C
Dew Point: 45°F , 7°C
Humidity: 32%
Barometer: 30.05 inHg , 1017.6 hPa
Clouds: Clear
Visibility: 10 miles , 16 km
2018/10/18 19:53 KSDL 181953Z 10006KT 10SM CLR 25/07 A3005 RMK AO2 SLP160 T02500067
 
KPHX - Phoenix/Sky Harbor, Arizona, USA
Distance from station: S 15mi, 24km
Updated: Thu 18 Oct 2018 1251 MST
Few Clouds
Few Clouds
 Wind from E
Wind: E 12 mph , 19 km/h
Temperature: 77°F , 25°C
Dew Point: 46°F , 8°C
Humidity: 34%
Barometer: 30.02 inHg , 1016.6 hPa
Clouds: Few Clouds
Visibility: 10 miles , 16 km
Cloud details: Few Clouds 7000 ft
2018/10/18 19:51 KPHX 181951Z 09010KT 10SM FEW070 25/08 A3002 RMK AO2 SLP153 T02500078
KGEU - Glendale, Arizona, USA
Distance from station: WSW 19mi, 30km
Updated: Thu 18 Oct 2018 1253 MST
Clear
Clear
 Wind from WSW
Wind: WSW 3 mph , 6 km/h
Temperature: 77°F , 25°C
Dew Point: 45°F , 7°C
Humidity: 32%
Barometer: 30.05 inHg , 1017.6 hPa
Clouds: Clear
Visibility: 10 miles , 16 km
2018/10/18 19:53 KGEU 181953Z 24003KT 10SM SKC 25/07 A3005
 
KFFZ - Mesa/Falcon Field, Arizona, USA
Distance from station: SE 21mi, 33km
Updated: Thu 18 Oct 2018 1254 MST
Clear
Clear
 Wind from varies
Wind: varies 3 mph , 6 km/h
Temperature: 77°F , 25°C
Dew Point: 43°F , 6°C
Humidity: 30%
Barometer: 30.04 inHg , 1017.3 hPa
Clouds: Clear
Visibility: 10 miles , 16 km
2018/10/18 19:54 KFFZ 181954Z VRB03KT 10SM CLR 25/06 A3004 RMK AO2 SLP153 T02500061
KLUF - Luke AFB/Glendale, Arizona, USA
Distance from station: WSW 23mi, 36km
Updated: Thu 18 Oct 2018 1258 MST
Clear
Clear
 Wind from ENE
Wind: ENE 8 mph , 13 km/h
Temperature: 79°F , 26°C
Dew Point: 45°F , 7°C
Humidity: 30%
Barometer: 30.02 inHg , 1016.6 hPa
Clouds: Clear
Visibility: 10 miles , 16 km
2018/10/18 19:58 KLUF 181958Z AUTO 07007KT 10SM CLR 26/07 A3002 RMK AO2 SLP158 T02550071 $
 
KGYR - Goodyear Municipal, Arizona, USA
Distance from station: SW 26mi, 42km
Updated: Thu 18 Oct 2018 1247 MST
Few Clouds
Few Clouds
 Wind from ENE
Wind: ENE 10 mph , 17 km/h, Gust: 17 mph , 28 km/h
Temperature: 79°F , 26°C
Dew Point: 48°F , 9°C
Humidity: 34%
Barometer: 30.04 inHg , 1017.3 hPa
Clouds: Few Clouds
Visibility: 10 miles , 16 km
Cloud details: Few Clouds 5000 ft
2018/10/18 19:47 KGYR 181947Z 07009G15KT 10SM FEW050 26/09 A3004
KIWA - Chandler/Mesa, Arizona, USA
Distance from station: SE 32mi, 51km
Updated: Thu 18 Oct 2018 1248 MST
Clear
Clear
 Wind from N
Wind: N 3 mph , 6 km/h
Temperature: 77°F , 25°C
Dew Point: 46°F , 8°C
Humidity: 34%
Barometer: 30.05 inHg , 1017.6 hPa
Clouds: Clear
Visibility: 45 miles , 72 km
2018/10/18 19:48 KIWA 181948Z 35003KT 45SM SKC 25/08 A3005
 
KBXK - Buckeye, Arizona, USA
Distance from station: WSW 42mi, 68km
Updated: Thu 18 Oct 2018 1255 MST
Clear
Clear
 Wind from E
Wind: E 12 mph , 19 km/h, Gust: 16 mph , 26 km/h
Temperature: 77°F , 25°C
Dew Point: 46°F , 8°C
Humidity: 34%
Barometer: 30.04 inHg , 1017.3 hPa
Clouds: Clear
Visibility: 10 miles , 16 km
2018/10/18 19:55 KBXK 181955Z AUTO 10010G14KT 10SM CLR 25/08 A3004 RMK AO1
KCGZ - Casa Grande, Arizona, USA
Distance from station: SSE 50mi, 81km
Updated: Thu 18 Oct 2018 1256 MST
Clear
Clear
 Wind from NE
Wind: NE 9 mph , 15 km/h
Temperature: 75°F , 24°C
Dew Point: 48°F , 9°C
Humidity: 39%
Barometer: 30.04 inHg , 1017.3 hPa
Clouds: Clear
Visibility: 10 miles , 16 km
2018/10/18 19:56 KCGZ 181956Z AUTO 04008KT 10SM CLR 24/09 A3004 RMK AO2 SLP164 T02440089 $
 
KPAN - Payson, Arizona, USA
Distance from station: NE 57mi, 91km
Updated: Thu 18 Oct 2018 1255 MST
Clear
Clear
 Wind from varies
Wind: varies 5 mph , 7 km/h
Temperature: 61°F , 16°C
Dew Point: 39°F , 4°C
Humidity: 45%
Barometer: 30.19 inHg , 1022.4 hPa
Clouds: Clear
Visibility: 10 miles , 16 km
2018/10/18 19:55 KPAN 181955Z AUTO VRB04KT 10SM CLR 16/04 A3019 RMK AO2
KGBN - Gila Bend (aaf), Arizona, USA
Distance from station: SW 68mi, 109km
Updated: Thu 20 Jul 2017 0757 MST
NOT Current
Partly cloudy
Partly cloudy
 Wind from calm
Wind: Calm
Temperature: 86°F , 30°C
Heat Index: 89°F , 32°C
Dew Point: 68°F , 20°C
Humidity: 55%
Barometer: 29.97 inHg , 1014.9 hPa
Clouds: Partly cloudy
Visibility: 10 miles , 16 km
Cloud details: Few Clouds 10000 ft
Partly cloudy 15000 ft
2017/07/20 14:57 KGBN 201457Z 00000KT 10SM FEW100 SCT150 30/20 A2997 RMK A02 NO SLP
 
KPRC - Prescott, Arizona, USA
Distance from station: NNW 73mi, 118km
Updated: Thu 18 Oct 2018 1253 MST
Clear
Clear
 Wind from calm
Wind: Calm
Temperature: 61°F , 16°C
Dew Point: 36°F , 2°C
Humidity: 39%
Barometer: 30.20 inHg , 1022.7 hPa
Clouds: Clear
Visibility: 10 miles , 16 km
2018/10/18 19:53 KPRC 181953Z 00000KT 10SM CLR 16/02 A3020 RMK AO2 SLP186 T01560022
KSEZ - Sedona, Arizona, USA
Distance from station: N 84mi, 135km
Updated: Thu 18 Oct 2018 1255 MST
Clear
Clear
 Wind from SSE
Wind: SSE 5 mph , 7 km/h
Temperature: 64°F , 18°C
Dew Point: 37°F , 3°C
Humidity: 37%
Barometer: 30.18 inHg , 1022 hPa
Clouds: Clear
Visibility: 10 miles , 16 km
2018/10/18 19:55 KSEZ 181955Z AUTO 16004KT 10SM CLR 18/03 A3018 RMK AO2
 
KFLG - Flagstaff, Arizona, USA
Distance from station: N 105mi, 168km
Updated: Thu 18 Oct 2018 1257 MST
Partly cloudy
Partly cloudy
 Wind from N
Wind: N 6 mph , 9 km/h
Temperature: 52°F , 11°C
Dew Point: 34°F , 1°C
Humidity: 50%
Barometer: 30.26 inHg , 1024.7 hPa
Clouds: Partly cloudy
Visibility: 10 miles , 16 km
Cloud details: Partly cloudy 2000 ft
2018/10/18 19:57 KFLG 181957Z 01005KT 10SM SCT020 11/01 A3026 RMK AO2 SLP213 T01060006
KRYN - Tucson/Ryan Field, Arizona, USA
Distance from station: SSE 114mi, 184km
Updated: Thu 18 Oct 2018 1251 MST
Clear
Clear
 Wind from E
Wind: E 8 mph , 13 km/h
Temperature: 75°F , 24°C
Dew Point: 46°F , 8°C
Humidity: 36%
Barometer: 30.06 inHg , 1017.9 hPa
Clouds: Clear
Visibility: 10 miles , 16 km
2018/10/18 19:51 KRYN 181951Z 08007KT 10SM CLR 24/08 A3006
 
KCMR - Williams Clark, Arizona, USA
Distance from station: N 115mi, 185km
Updated: Thu 18 Oct 2018 1255 MST
Clear
Clear
 Wind from NW
Wind: NW 8 mph , 13 km/h, Gust: 14 mph , 22 km/h
Temperature: 54°F , 12°C
Dew Point: 32°F , 0°C
Humidity: 44%
Barometer: 30.23 inHg , 1023.7 hPa
Clouds: Clear
Visibility: 10 miles , 16 km
2018/10/18 19:55 KCMR 181955Z AUTO 32007G12KT 10SM CLR 12/M00 A3023 RMK AO2
KINW - Winslow, Arizona, USA
Distance from station: NE 121mi, 194km
Updated: Thu 18 Oct 2018 1256 MST
Mostly cloudy
Mostly cloudy
 Wind from WSW
Wind: WSW 5 mph , 7 km/h
Temperature: 57°F , 14°C
Dew Point: 45°F , 7°C
Humidity: 63%
Barometer: 30.23 inHg , 1023.7 hPa
Clouds: Mostly cloudy
Visibility: 10 miles , 16 km
Cloud details: Few Clouds 2500 ft
Mostly cloudy 3900 ft
2018/10/18 19:56 KINW 181956Z AUTO 24004KT 10SM FEW025 BKN039 14/07 A3023 RMK AO2 SLP208 T01390067
 
KTUS - Tucson, Arizona, USA
Distance from station: SSE 121mi, 195km
Updated: Thu 18 Oct 2018 1253 MST
Clear
Clear
 Wind from E
Wind: E 8 mph , 13 km/h
Temperature: 75°F , 24°C
Dew Point: 46°F , 8°C
Humidity: 36%
Barometer: 30.06 inHg , 1017.9 hPa
Clouds: Clear
Visibility: 10 miles , 16 km
2018/10/18 19:53 KTUS 181953Z 10007KT 060V120 10SM CLR 24/08 A3006 RMK AO2 SLP148 T02390083
KDMA - Davis AFB/Tucson, Arizona, USA
Distance from station: SE 122mi, 196km
Updated: Thu 18 Oct 2018 1258 MST
Clear
Clear
 
Temperature: 77°F , 25°C
Dew Point: 48°F , 9°C
Humidity: 36%
Barometer: 30.04 inHg , 1017.3 hPa
Clouds: Clear
2018/10/18 19:58 KDMA 181958Z AUTO M M M CLR 25/09 A3004 RMK AO2 SLP143 T02510090 RVRNO $
 
KSOW - Show Low Municipal, Arizona, USA
Distance from station: ENE 123mi, 198km
Updated: Thu 18 Oct 2018 1255 MST
Mostly cloudy
Mostly cloudy
 Wind from SSW
Wind: SSW 9 mph , 15 km/h
Temperature: 57°F , 14°C
Dew Point: 41°F , 5°C
Humidity: 55%
Barometer: 30.24 inHg , 1024 hPa
Clouds: Mostly cloudy
Visibility: M 10 miles , 16 km
Cloud details: Mostly cloudy 3600 ft
Mostly cloudy 10000 ft
2018/10/18 19:55 KSOW 181955Z AUTO 20008KT 10SM BKN036 BKN100 14/05 A3024 RMK AO2
KSAD - Safford, Arizona, USA
Distance from station: ESE 148mi, 238km
Updated: Thu 18 Oct 2018 1251 MST
Overcast
Overcast
 Wind from S
Wind: S 15 mph , 24 km/h
Temperature: 61°F , 16°C
Dew Point: 48°F , 9°C
Humidity: 63%
Barometer: 30.18 inHg , 1022 hPa
Clouds: Overcast
Visibility: 10 miles , 16 km
Cloud details: Overcast 3500 ft
2018/10/18 19:51 KSAD 181951Z AUTO 17013KT 10SM OVC035 16/09 A3018 RMK AO2 SLP194 T01560094